Time;durP1;ratioP1;P1;durP2;ratioP2;P2;SDS_P1;SDS_P2;PMS_P1;PMS_P2;Temp;Humidity;BMP_temperature;BMP_pressure;BME280_temperature;BME280_humidity;BME280_pressure;Samples;Min_cycle;Max_cycle;Signal;HPM_P1;HPM_P2
2023/11/07 00:01:47;;;;;;;3.53;1.77;;;11.20;99.90;;;;;;5052917;28;20472;-60
2023/11/07 00:04:14;;;;;;;6.70;2.10;;;11.20;99.90;;;;;;5052840;28;20456;-60
2023/11/07 00:06:42;;;;;;;4.80;1.97;;;11.20;99.90;;;;;;5052973;28;20441;-60
2023/11/07 00:09:09;;;;;;;3.80;1.37;;;11.20;99.90;;;;;;5052972;28;20807;-60
2023/11/07 00:11:36;;;;;;;7.63;2.00;;;11.20;99.90;;;;;;5052433;28;20449;-60
2023/11/07 00:14:03;;;;;;;7.00;1.50;;;11.10;99.90;;;;;;5052805;28;20511;-60
2023/11/07 00:16:31;;;;;;;4.63;1.50;;;11.20;99.90;;;;;;5052777;28;20453;-60
2023/11/07 00:18:57;;;;;;;8.07;1.80;;;11.10;99.90;;;;;;5052332;28;20485;-60
2023/11/07 00:21:24;;;;;;;7.07;1.37;;;11.10;99.90;;;;;;5052746;28;20448;-60
2023/11/07 00:23:52;;;;;;;7.20;1.50;;;11.10;99.90;;;;;;5052574;28;20540;-60
2023/11/07 00:26:20;;;;;;;4.87;1.73;;;11.10;99.90;;;;;;5052761;28;20445;-60
2023/11/07 00:28:47;;;;;;;3.40;1.53;;;11.20;99.90;;;;;;5052436;28;21015;-60
2023/11/07 00:31:14;;;;;;;3.67;1.50;;;11.10;99.90;;;;;;5052698;28;20502;-60
2023/11/07 00:33:41;;;;;;;4.60;2.93;;;11.20;99.90;;;;;;5052660;28;20466;-60
2023/11/07 00:36:11;;;;;;;3.67;1.33;;;11.10;99.90;;;;;;5052688;28;20453;-60
2023/11/07 00:38:38;;;;;;;5.83;1.87;;;11.10;99.90;;;;;;5052833;28;20470;-60
2023/11/07 00:41:06;;;;;;;6.90;1.80;;;11.10;99.90;;;;;;5052683;28;20457;-60
2023/11/07 00:43:33;;;;;;;7.73;1.73;;;11.10;99.90;;;;;;5052564;28;20473;-60
2023/11/07 00:46:00;;;;;;;4.07;1.80;;;11.10;99.90;;;;;;5056161;28;20794;-60
2023/11/07 00:48:27;;;;;;;3.47;1.57;;;11.10;99.90;;;;;;5055881;28;20935;-60
2023/11/07 00:50:54;;;;;;;3.07;1.10;;;11.10;99.90;;;;;;5056275;28;20445;-60
2023/11/07 00:53:20;;;;;;;4.40;1.47;;;11.10;99.90;;;;;;5055933;28;20478;-60
2023/11/07 00:55:47;;;;;;;5.17;1.60;;;11.10;99.90;;;;;;5056020;28;20445;-60
2023/11/07 00:58:16;;;;;;;3.57;1.20;;;11.10;99.90;;;;;;5055675;28;20446;-60
2023/11/07 01:00:42;;;;;;;2.83;1.40;;;11.10;99.90;;;;;;5055292;28;20524;-60
2023/11/07 01:03:09;;;;;;;5.50;1.90;;;11.10;99.90;;;;;;5055332;28;20519;-60
2023/11/07 01:05:36;;;;;;;7.20;1.87;;;11.10;99.90;;;;;;5055218;28;20437;-60
2023/11/07 01:08:02;;;;;;;5.67;2.03;;;11.10;99.90;;;;;;5055267;28;20822;-60
2023/11/07 01:10:29;;;;;;;5.77;1.50;;;11.10;99.90;;;;;;5055742;28;20450;-60
2023/11/07 01:12:56;;;;;;;4.83;1.17;;;11.10;99.90;;;;;;5055462;28;20457;-60
2023/11/07 01:15:24;;;;;;;6.10;2.17;;;11.00;99.90;;;;;;5055261;28;20529;-60
2023/11/07 01:17:51;;;;;;;3.73;1.87;;;11.10;99.90;;;;;;5055319;28;20442;-60
2023/11/07 01:20:18;;;;;;;5.80;1.60;;;11.00;99.90;;;;;;5055434;28;20512;-60
2023/11/07 01:22:45;;;;;;;4.73;2.10;;;11.00;99.90;;;;;;5055313;28;20470;-60
2023/11/07 01:25:12;;;;;;;4.13;1.50;;;11.00;99.90;;;;;;5055195;28;20445;-60
2023/11/07 01:27:38;;;;;;;3.33;1.60;;;11.00;99.90;;;;;;5055363;28;20473;-60
2023/11/07 01:30:07;;;;;;;6.67;1.57;;;11.00;99.90;;;;;;5055306;28;20521;-60
2023/11/07 01:32:36;;;;;;;4.00;1.60;;;11.00;99.90;;;;;;5055101;28;20556;-60
2023/11/07 01:35:04;;;;;;;4.20;1.47;;;11.00;99.90;;;;;;5054843;28;20861;-60
2023/11/07 01:37:30;;;;;;;4.00;1.10;;;11.00;99.90;;;;;;5055126;28;20453;-60
2023/11/07 01:39:57;;;;;;;5.03;1.60;;;10.90;99.90;;;;;;5054908;28;20477;-60
2023/11/07 01:42:24;;;;;;;7.10;1.53;;;10.90;99.90;;;;;;5054734;28;20916;-60
2023/11/07 01:44:52;;;;;;;4.90;1.40;;;10.90;99.90;;;;;;5054715;28;20959;-60
2023/11/07 01:47:20;;;;;;;4.13;1.07;;;10.90;99.90;;;;;;5054563;28;20939;-60
2023/11/07 01:49:48;;;;;;;4.73;1.50;;;10.90;99.90;;;;;;5055338;28;20805;-60
2023/11/07 01:52:17;;;;;;;5.60;1.20;;;10.90;99.90;;;;;;5054502;28;20994;-60
2023/11/07 01:54:45;;;;;;;1.90;1.13;;;10.90;99.90;;;;;;5054501;28;20528;-60
2023/11/07 01:57:12;;;;;;;5.17;1.30;;;10.90;99.90;;;;;;5054811;28;20448;-60
2023/11/07 01:59:39;;;;;;;5.90;1.00;;;10.90;99.90;;;;;;5054742;28;20481;-60
2023/11/07 02:02:10;;;;;;;3.00;1.27;;;10.80;99.90;;;;;;5054584;28;20449;-60
2023/11/07 02:04:37;;;;;;;2.73;1.10;;;10.90;99.90;;;;;;5054717;28;20491;-60
2023/11/07 02:07:06;;;;;;;5.40;1.30;;;10.80;99.90;;;;;;5054945;28;20441;-60
2023/11/07 02:09:33;;;;;;;4.87;1.20;;;10.80;99.90;;;;;;5054326;28;20450;-60
2023/11/07 02:12:00;;;;;;;2.20;0.83;;;10.80;99.90;;;;;;5054280;28;20457;-60
2023/11/07 02:14:27;;;;;;;3.60;1.40;;;10.80;99.90;;;;;;5054393;28;20452;-60
2023/11/07 02:16:54;;;;;;;5.37;1.37;;;10.80;99.90;;;;;;5054614;28;20442;-60
2023/11/07 02:19:21;;;;;;;4.37;1.53;;;10.80;99.90;;;;;;5054894;28;20478;-60
2023/11/07 02:21:49;;;;;;;3.90;1.53;;;10.80;99.90;;;;;;5054599;28;20851;-60
2023/11/07 02:24:17;;;;;;;3.83;1.27;;;10.90;99.90;;;;;;5054670;28;20449;-60
2023/11/07 02:26:44;;;;;;;6.33;0.97;;;10.90;99.90;;;;;;5054358;28;20449;-60
2023/11/07 02:29:11;;;;;;;2.90;1.37;;;10.80;99.90;;;;;;5054314;28;20442;-60
2023/11/07 02:31:37;;;;;;;2.10;1.10;;;10.80;99.90;;;;;;5054415;28;20523;-60
2023/11/07 02:34:05;;;;;;;3.57;0.87;;;10.80;99.90;;;;;;5053907;28;20468;-60
2023/11/07 02:36:32;;;;;;;4.70;1.20;;;10.80;99.90;;;;;;5054109;28;20528;-60
2023/11/07 02:38:59;;;;;;;3.10;1.00;;;10.80;99.90;;;;;;5053708;28;21010;-60
2023/11/07 02:41:27;;;;;;;3.33;0.90;;;10.80;99.90;;;;;;5054079;28;20928;-60
2023/11/07 02:43:54;;;;;;;3.10;1.40;;;10.80;99.90;;;;;;5053913;28;20497;-60
2023/11/07 02:46:21;;;;;;;3.33;1.50;;;10.80;99.90;;;;;;5053828;28;20448;-59
2023/11/07 02:48:48;;;;;;;6.57;1.80;;;10.80;99.90;;;;;;5053512;28;20452;-60
2023/11/07 02:51:17;;;;;;;2.97;1.27;;;10.80;99.90;;;;;;5053754;28;20442;-60
2023/11/07 02:53:45;;;;;;;1.53;0.90;;;10.80;99.90;;;;;;5053765;28;20549;-60
2023/11/07 02:56:12;;;;;;;2.73;1.10;;;10.80;99.90;;;;;;5053806;28;20871;-60
2023/11/07 02:58:40;;;;;;;3.50;1.30;;;10.90;99.90;;;;;;5053752;28;20450;-60
2023/11/07 03:01:07;;;;;;;2.13;1.10;;;10.80;99.90;;;;;;5053409;28;20947;-60
2023/11/07 03:03:34;;;;;;;4.63;1.03;;;10.80;99.90;;;;;;5053991;28;20505;-59
2023/11/07 03:06:00;;;;;;;2.40;1.00;;;10.70;99.90;;;;;;5053295;28;20460;-60
2023/11/07 03:08:27;;;;;;;3.47;1.23;;;10.60;99.90;;;;;;5053438;28;20452;-60
2023/11/07 03:10:54;;;;;;;4.73;1.17;;;10.60;99.90;;;;;;5053356;28;20453;-60
2023/11/07 03:13:21;;;;;;;8.03;1.33;;;10.60;99.90;;;;;;5053430;28;20829;-59
2023/11/07 03:15:49;;;;;;;8.10;1.50;;;10.60;99.90;;;;;;5053470;28;20446;-60
2023/11/07 03:18:15;;;;;;;4.40;1.40;;;10.60;99.90;;;;;;5053181;28;20967;-60
2023/11/07 03:20:42;;;;;;;3.50;1.13;;;10.60;99.90;;;;;;5053196;28;20497;-60
2023/11/07 03:23:09;;;;;;;4.40;1.60;;;10.60;99.90;;;;;;5052941;28;21044;-59
2023/11/07 03:25:36;;;;;;;6.30;1.10;;;10.60;99.90;;;;;;5053349;28;20441;-60
2023/11/07 03:28:02;;;;;;;3.60;1.43;;;10.70;99.90;;;;;;5053327;28;20446;-60
2023/11/07 03:30:29;;;;;;;3.70;1.17;;;10.70;99.90;;;;;;5053551;28;20450;-60
2023/11/07 03:32:57;;;;;;;2.87;0.87;;;10.70;99.90;;;;;;5053032;28;20465;-60
2023/11/07 03:35:26;;;;;;;1.47;0.83;;;10.70;99.90;;;;;;5053231;28;20450;-60
2023/11/07 03:37:52;;;;;;;4.63;1.27;;;10.80;99.90;;;;;;5052841;28;20943;-60
2023/11/07 03:40:20;;;;;;;7.17;1.10;;;10.80;99.90;;;;;;5053190;28;20531;-60
2023/11/07 03:42:46;;;;;;;1.80;1.40;;;10.80;99.90;;;;;;5053106;28;20524;-60
2023/11/07 03:45:13;;;;;;;2.20;0.93;;;10.80;99.90;;;;;;5053091;28;20445;-60
2023/11/07 03:47:40;;;;;;;3.13;1.00;;;10.80;99.90;;;;;;5053209;28;20537;-60
2023/11/07 03:50:10;;;;;;;5.50;1.10;;;10.80;99.90;;;;;;5053129;28;20440;-60
2023/11/07 03:52:37;;;;;;;3.67;1.03;;;10.70;99.90;;;;;;5053032;28;20473;-59
2023/11/07 03:55:04;;;;;;;4.83;1.20;;;10.70;99.90;;;;;;5052723;28;20448;-60
2023/11/07 03:57:30;;;;;;;1.83;1.00;;;10.70;99.90;;;;;;5053100;28;20446;-60
2023/11/07 03:59:57;;;;;;;4.37;1.57;;;10.70;99.90;;;;;;5052924;28;20481;-59
2023/11/07 04:02:24;;;;;;;2.43;1.20;;;10.60;99.90;;;;;;5053127;28;20476;-60
2023/11/07 04:04:50;;;;;;;1.17;1.00;;;10.70;99.90;;;;;;5053051;28;20869;-60
2023/11/07 04:07:18;;;;;;;1.73;1.10;;;10.60;99.90;;;;;;5052985;28;20449;-60
2023/11/07 04:09:45;;;;;;;2.73;1.20;;;10.50;99.90;;;;;;5052912;28;20449;-60
2023/11/07 04:12:12;;;;;;;2.10;1.10;;;10.50;99.90;;;;;;5052947;28;20488;-60
2023/11/07 04:14:39;;;;;;;1.30;0.93;;;10.50;99.90;;;;;;5053100;28;20484;-60
2023/11/07 04:17:06;;;;;;;2.10;1.00;;;10.60;99.90;;;;;;5052889;28;20449;-60
2023/11/07 04:19:33;;;;;;;4.90;1.47;;;10.60;99.90;;;;;;5056599;28;20534;-60
2023/11/07 04:22:00;;;;;;;3.00;1.20;;;10.60;99.90;;;;;;5056791;28;20484;-60
2023/11/07 04:24:29;;;;;;;5.50;1.03;;;10.60;99.90;;;;;;5056637;28;20811;-60
2023/11/07 04:26:56;;;;;;;2.13;1.00;;;10.70;99.90;;;;;;5056454;28;20820;-60
2023/11/07 04:29:24;;;;;;;1.50;1.03;;;10.70;99.90;;;;;;5056406;28;20472;-60
2023/11/07 04:31:50;;;;;;;3.10;1.13;;;10.60;99.90;;;;;;5056429;28;20473;-60
2023/11/07 04:34:17;;;;;;;2.90;1.20;;;10.70;99.90;;;;;;5056430;28;20503;-60
2023/11/07 04:36:44;;;;;;;4.40;1.63;;;10.70;99.90;;;;;;5056057;28;20939;-60
2023/11/07 04:39:12;;;;;;;8.13;1.30;;;10.80;99.90;;;;;;5057123;28;20473;-60
2023/11/07 04:41:41;;;;;;;4.30;1.80;;;10.70;99.90;;;;;;5056212;28;20540;-60
2023/11/07 04:44:08;;;;;;;1.67;1.10;;;10.80;99.90;;;;;;5056095;28;20476;-59
2023/11/07 04:46:37;;;;;;;3.87;1.90;;;10.80;99.90;;;;;;5056159;28;20533;-60
2023/11/07 04:49:05;;;;;;;3.40;1.00;;;10.80;99.90;;;;;;5056127;28;20488;-60
2023/11/07 04:51:32;;;;;;;6.07;1.33;;;10.80;99.90;;;;;;5056049;28;20441;-60
2023/11/07 04:53:59;;;;;;;1.27;1.10;;;10.80;99.90;;;;;;5055867;28;20987;-59
2023/11/07 04:56:25;;;;;;;2.00;1.00;;;10.70;99.90;;;;;;5055862;28;20442;-60
2023/11/07 04:58:53;;;;;;;2.97;1.20;;;10.60;99.90;;;;;;5055918;28;20448;-60
2023/11/07 05:01:21;;;;;;;2.97;1.20;;;10.60;99.90;;;;;;5055730;28;20570;-60
2023/11/07 05:03:48;;;;;;;5.63;1.60;;;10.60;99.90;;;;;;5055445;28;20466;-60
2023/11/07 05:06:15;;;;;;;3.03;1.20;;;10.50;99.90;;;;;;5055782;28;20472;-60
2023/11/07 05:08:42;;;;;;;2.97;1.23;;;10.50;99.90;;;;;;5055708;28;20449;-60
2023/11/07 05:11:08;;;;;;;2.10;1.13;;;10.60;99.90;;;;;;5055417;28;20445;-60
2023/11/07 05:13:35;;;;;;;2.13;1.40;;;10.60;99.90;;;;;;5055800;28;20462;-60
2023/11/07 05:16:04;;;;;;;2.90;1.20;;;10.60;99.90;;;;;;5055490;28;20449;-60
2023/11/07 05:18:31;;;;;;;3.67;1.10;;;10.70;99.90;;;;;;5055060;28;20956;-60
2023/11/07 05:20:58;;;;;;;2.40;1.57;;;10.70;99.90;;;;;;5055623;28;20485;-60
2023/11/07 05:23:24;;;;;;;3.83;1.40;;;10.70;99.90;;;;;;5055238;28;20469;-60
2023/11/07 05:25:51;;;;;;;1.93;1.37;;;10.70;99.90;;;;;;5055333;28;20839;-60
2023/11/07 05:28:17;;;;;;;1.17;1.00;;;10.70;99.90;;;;;;5056039;28;20442;-59
2023/11/07 05:30:44;;;;;;;1.77;0.87;;;10.70;99.90;;;;;;5054756;28;20457;-60
2023/11/07 05:33:12;;;;;;;1.47;0.80;;;10.70;99.90;;;;;;5055440;28;20473;-59
2023/11/07 05:35:39;;;;;;;4.57;1.27;;;10.70;99.90;;;;;;5055167;28;20445;-59
2023/11/07 05:38:05;;;;;;;3.60;1.07;;;10.80;99.90;;;;;;5055303;28;20448;-59
2023/11/07 05:40:32;;;;;;;1.70;1.17;;;10.80;99.90;;;;;;5055477;28;20478;-59
2023/11/07 05:42:59;;;;;;;1.33;1.00;;;10.70;99.90;;;;;;5055183;28;20469;-59
2023/11/07 05:45:26;;;;;;;1.27;0.93;;;10.80;99.90;;;;;;5055406;28;20447;-59
2023/11/07 05:47:54;;;;;;;1.47;0.83;;;10.80;99.90;;;;;;5055239;28;20496;-59
2023/11/07 05:50:25;;;;;;;1.87;1.10;;;10.80;99.90;;;;;;5054717;28;20940;-59
2023/11/07 05:52:52;;;;;;;3.03;1.10;;;10.80;99.90;;;;;;5054840;28;20493;-60
2023/11/07 05:55:19;;;;;;;1.30;1.20;;;10.80;99.90;;;;;;5054823;28;20854;-59
2023/11/07 05:57:45;;;;;;;3.13;0.70;;;10.80;99.90;;;;;;5054942;28;20476;-59
2023/11/07 06:00:14;;;;;;;1.80;1.00;;;10.80;99.90;;;;;;5055477;28;20588;-59
2023/11/07 06:02:41;;;;;;;2.53;1.50;;;10.80;99.90;;;;;;5054668;28;20469;-59
2023/11/07 06:05:08;;;;;;;1.27;0.90;;;10.80;99.90;;;;;;5054669;28;20449;-59
2023/11/07 06:07:36;;;;;;;2.37;1.33;;;10.80;99.90;;;;;;5054634;28;20540;-59
2023/11/07 06:10:03;;;;;;;1.93;1.13;;;10.90;99.90;;;;;;5054197;28;20959;-59
2023/11/07 06:12:29;;;;;;;6.83;2.20;;;10.80;99.90;;;;;;5054430;28;20473;-59
2023/11/07 06:14:56;;;;;;;2.53;1.50;;;10.80;99.90;;;;;;5054058;28;20996;-59
2023/11/07 06:17:23;;;;;;;1.50;1.00;;;10.80;99.90;;;;;;5054162;28;20954;-59
2023/11/07 06:19:49;;;;;;;2.63;1.60;;;10.90;99.90;;;;;;5054307;28;20441;-59
2023/11/07 06:22:16;;;;;;;4.33;2.13;;;10.80;99.90;;;;;;5054292;28;20465;-59
2023/11/07 06:24:46;;;;;;;3.97;2.20;;;10.80;99.90;;;;;;5054053;28;20857;-60
2023/11/07 06:27:12;;;;;;;10.00;1.67;;;10.80;99.90;;;;;;5054287;28;20476;-59
2023/11/07 06:29:42;;;;;;;1.47;1.10;;;10.70;99.90;;;;;;5054248;28;20445;-59
2023/11/07 06:32:10;;;;;;;2.10;1.30;;;10.70;99.90;;;;;;5054080;28;20437;-59
2023/11/07 06:34:36;;;;;;;3.20;1.17;;;10.70;99.90;;;;;;5054128;28;20469;-59
2023/11/07 06:37:03;;;;;;;2.40;1.50;;;10.70;99.90;;;;;;5053871;28;20452;-59
2023/11/07 06:39:30;;;;;;;4.67;2.57;;;10.60;99.90;;;;;;5053833;28;20503;-59
2023/11/07 06:41:58;;;;;;;8.20;2.00;;;10.60;99.90;;;;;;5052940;28;20881;-59
2023/11/07 06:44:25;;;;;;;3.13;1.80;;;10.60;99.90;;;;;;5053804;28;20460;-59
2023/11/07 06:46:51;;;;;;;3.27;1.67;;;10.60;99.90;;;;;;5053527;28;20843;-59
2023/11/07 06:49:18;;;;;;;11.03;1.60;;;10.60;99.90;;;;;;5071247;28;20444;-59
2023/11/07 06:51:45;;;;;;;3.20;1.50;;;10.60;99.90;;;;;;5073531;28;20969;-59
2023/11/07 06:54:12;;;;;;;5.20;2.20;;;10.70;99.90;;;;;;5073657;28;20461;-59
2023/11/07 06:56:39;;;;;;;3.57;1.20;;;10.60;99.90;;;;;;5073488;28;20449;-59
2023/11/07 06:59:07;;;;;;;1.60;1.47;;;10.70;99.90;;;;;;5073369;28;20492;-59
2023/11/07 07:01:34;;;;;;;6.60;2.10;;;10.70;99.90;;;;;;5073501;28;20854;-59
2023/11/07 07:04:00;;;;;;;4.00;1.77;;;10.70;99.90;;;;;;5073729;28;20469;-59
2023/11/07 07:06:28;;;;;;;5.77;1.60;;;10.70;99.90;;;;;;5073443;28;20461;-59
2023/11/07 07:08:54;;;;;;;4.43;1.37;;;10.80;99.90;;;;;;5073473;28;20445;-59
2023/11/07 07:11:21;;;;;;;5.83;1.43;;;10.80;99.90;;;;;;5073265;28;20456;-59
2023/11/07 07:13:48;;;;;;;2.20;1.13;;;10.80;99.90;;;;;;5073103;28;20468;-59
2023/11/07 07:16:18;;;;;;;2.33;1.20;;;10.70;99.90;;;;;;5073261;28;20445;-59
2023/11/07 07:18:45;;;;;;;2.00;1.10;;;10.70;99.90;;;;;;5073415;28;20435;-59
2023/11/07 07:21:12;;;;;;;0.80;0.60;;;10.70;99.90;;;;;;5073229;28;20538;-59
2023/11/07 07:23:42;;;;;;;4.00;0.77;;;10.60;99.90;;;;;;5072991;28;20970;-59
2023/11/07 07:26:09;;;;;;;1.97;1.03;;;10.60;99.90;;;;;;5073292;28;20444;-59
2023/11/07 07:28:38;;;;;;;3.80;1.10;;;10.60;99.90;;;;;;5073342;28;20440;-59
2023/11/07 07:31:06;;;;;;;2.13;1.13;;;10.70;99.90;;;;;;5073296;28;20808;-59
2023/11/07 07:33:34;;;;;;;1.60;0.60;;;10.70;99.90;;;;;;5073221;28;20465;-59
2023/11/07 07:36:04;;;;;;;3.37;0.80;;;10.70;99.90;;;;;;5073167;28;20448;-59
2023/11/07 07:38:31;;;;;;;1.57;1.03;;;10.80;99.90;;;;;;5073255;28;20535;-59
2023/11/07 07:40:58;;;;;;;2.37;1.00;;;10.80;99.90;;;;;;5073143;28;20524;-59
2023/11/07 07:43:25;;;;;;;3.13;0.80;;;10.80;99.90;;;;;;5073099;28;20465;-59
2023/11/07 07:45:52;;;;;;;4.40;1.10;;;10.80;99.90;;;;;;5072824;28;21008;-59
2023/11/07 07:48:19;;;;;;;3.83;0.87;;;10.90;99.90;;;;;;5072809;28;20942;-59
2023/11/07 07:50:47;;;;;;;0.60;0.60;;;10.80;99.90;;;;;;5073340;28;20444;-59
2023/11/07 07:53:15;;;;;;;2.13;0.53;;;10.80;99.90;;;;;;5074835;28;20563;-59
2023/11/07 07:55:43;;;;;;;1.97;0.80;;;10.90;99.90;;;;;;5076918;28;20448;-59
2023/11/07 07:58:10;;;;;;;2.73;1.17;;;10.90;99.90;;;;;;5076766;28;20991;-59
2023/11/07 08:00:38;;;;;;;1.13;0.50;;;10.80;99.90;;;;;;5077260;28;20484;-59
2023/11/07 08:03:06;;;;;;;11.83;0.93;;;10.80;99.90;;;;;;5077158;28;20464;-59
2023/11/07 08:05:33;;;;;;;1.40;0.60;;;10.90;99.90;;;;;;5076967;28;20452;-59
2023/11/07 08:08:01;;;;;;;1.40;1.00;;;10.90;99.90;;;;;;5076921;28;20445;-59
2023/11/07 08:10:28;;;;;;;1.30;0.67;;;10.90;99.90;;;;;;5076787;28;20453;-60
2023/11/07 08:12:56;;;;;;;3.73;0.90;;;10.90;99.90;;;;;;5076794;28;20460;-59
2023/11/07 08:15:25;;;;;;;1.73;1.00;;;11.00;99.90;;;;;;5076650;28;20484;-59
2023/11/07 08:17:51;;;;;;;2.33;0.90;;;11.00;99.90;;;;;;5076707;28;20543;-59
2023/11/07 08:20:20;;;;;;;1.80;1.20;;;11.10;99.90;;;;;;5076786;28;20444;-59
2023/11/07 08:22:48;;;;;;;4.27;0.90;;;11.20;99.90;;;;;;5076449;28;20512;-59
2023/11/07 08:25:18;;;;;;;1.80;0.97;;;11.20;99.90;;;;;;5076247;28;20814;-59
2023/11/07 08:27:45;;;;;;;6.70;1.00;;;11.30;99.90;;;;;;5076548;28;20465;-59
2023/11/07 08:30:14;;;;;;;3.20;1.57;;;11.40;99.90;;;;;;5076506;28;20444;-59
2023/11/07 08:32:42;;;;;;;1.70;0.90;;;11.50;99.90;;;;;;5076431;28;20464;-60
2023/11/07 08:35:11;;;;;;;3.60;1.00;;;11.60;99.90;;;;;;5076133;28;20953;-60
2023/11/07 08:37:38;;;;;;;4.20;1.20;;;11.70;99.80;;;;;;5076215;28;20449;-60
2023/11/07 08:40:06;;;;;;;6.47;1.17;;;11.80;99.60;;;;;;5076381;28;20448;-59
2023/11/07 08:42:34;;;;;;;2.30;0.90;;;11.80;99.50;;;;;;5076278;28;20571;-60
2023/11/07 08:45:01;;;;;;;3.00;1.30;;;11.90;99.30;;;;;;5075925;28;20445;-60
2023/11/07 08:47:28;;;;;;;2.53;1.10;;;12.00;99.10;;;;;;5076215;28;20440;-59
2023/11/07 08:49:57;;;;;;;2.33;1.10;;;12.10;99.00;;;;;;5075797;28;20939;-59
2023/11/07 08:52:24;;;;;;;3.47;1.67;;;12.20;98.80;;;;;;5076035;28;20480;-59
2023/11/07 08:54:51;;;;;;;2.80;1.00;;;12.30;98.20;;;;;;5076016;28;20808;-59
2023/11/07 08:57:18;;;;;;;2.20;1.20;;;12.30;98.50;;;;;;5076578;28;20541;-59
2023/11/07 08:59:46;;;;;;;1.60;1.07;;;12.40;98.10;;;;;;5075566;28;20824;-59
2023/11/07 09:02:13;;;;;;;2.80;1.03;;;12.40;98.10;;;;;;5075712;28;20492;-60
2023/11/07 09:04:39;;;;;;;3.63;1.07;;;12.40;97.60;;;;;;5074514;28;20440;-59
2023/11/07 09:07:07;;;;;;;4.10;1.00;;;12.40;98.00;;;;;;5075877;28;20441;-59
2023/11/07 09:09:35;;;;;;;2.60;1.00;;;12.40;98.20;;;;;;5075740;28;20479;-59
2023/11/07 09:12:02;;;;;;;1.70;0.97;;;12.40;98.10;;;;;;5075327;28;20452;-60
2023/11/07 09:14:29;;;;;;;5.23;1.63;;;12.30;98.00;;;;;;5075713;28;20452;-59
2023/11/07 09:16:57;;;;;;;1.87;0.80;;;12.30;98.30;;;;;;5075484;28;20452;-59
2023/11/07 09:19:25;;;;;;;3.07;1.13;;;12.40;98.20;;;;;;5075562;28;20452;-60
2023/11/07 09:21:51;;;;;;;5.00;1.37;;;12.40;98.00;;;;;;5075126;28;20549;-60
2023/11/07 09:24:18;;;;;;;2.40;1.07;;;12.40;98.30;;;;;;5075482;28;20449;-60
2023/11/07 09:26:45;;;;;;;1.60;1.07;;;12.40;98.00;;;;;;5075401;28;20448;-60
2023/11/07 09:29:12;;;;;;;3.27;1.67;;;12.40;98.20;;;;;;5075424;28;20544;-60
2023/11/07 09:31:38;;;;;;;1.97;1.20;;;12.40;98.30;;;;;;5075427;28;20444;-59
2023/11/07 09:34:08;;;;;;;2.30;1.20;;;12.50;98.30;;;;;;5075351;28;20926;-60
2023/11/07 09:36:36;;;;;;;2.50;0.97;;;12.50;98.20;;;;;;5075270;28;20456;-60
2023/11/07 09:39:05;;;;;;;2.40;1.43;;;12.60;98.10;;;;;;5075427;28;20444;-60
2023/11/07 09:41:32;;;;;;;2.20;1.00;;;12.70;98.00;;;;;;5075060;28;20484;-60
2023/11/07 09:44:03;;;;;;;4.13;1.00;;;12.80;97.70;;;;;;5074677;28;20468;-60
2023/11/07 09:46:34;;;;;;;6.57;0.90;;;12.90;97.10;;;;;;5075113;28;20433;-60
2023/11/07 09:49:00;;;;;;;1.00;0.90;;;13.00;96.30;;;;;;5075037;28;20490;-60
2023/11/07 09:51:30;;;;;;;3.47;1.20;;;13.10;96.20;;;;;;5075218;28;20469;-60
2023/11/07 09:53:59;;;;;;;7.47;2.07;;;13.10;96.00;;;;;;5074827;28;20507;-60
2023/11/07 09:56:28;;;;;;;2.43;1.23;;;13.30;96.00;;;;;;5074812;28;20475;-59
2023/11/07 09:59:00;;;;;;;6.03;1.30;;;13.40;95.40;;;;;;5074497;28;20960;-60
2023/11/07 10:01:26;;;;;;;3.13;1.50;;;13.30;95.20;;;;;;5074761;28;20515;-60
2023/11/07 10:03:54;;;;;;;3.10;1.27;;;13.20;95.70;;;;;;5074684;28;20464;-60
2023/11/07 10:06:21;;;;;;;3.07;1.13;;;13.20;95.40;;;;;;5074670;28;20440;-60
2023/11/07 10:08:49;;;;;;;3.80;1.03;;;13.20;95.20;;;;;;5074628;28;20444;-60
2023/11/07 10:11:17;;;;;;;2.50;1.30;;;13.10;95.20;;;;;;5074237;28;20467;-60
2023/11/07 10:14:00;;;;;;;1.67;0.80;;;12.90;95.30;;;;;;5074420;28;20464;-60
2023/11/07 10:16:36;;;;;;;2.63;1.00;;;13.00;95.70;;;;;;5074238;28;20421;-60
2023/11/07 10:19:04;;;;;;;1.70;1.13;;;13.00;96.00;;;;;;5074654;28;20830;-60
2023/11/07 10:21:32;;;;;;;2.70;1.40;;;13.10;95.40;;;;;;5073922;28;20997;-60
2023/11/07 10:24:02;;;;;;;3.30;1.00;;;13.20;95.50;;;;;;5074288;28;20460;-60
2023/11/07 10:26:29;;;;;;;3.57;1.10;;;13.20;95.20;;;;;;5074174;28;20448;-60
2023/11/07 10:29:13;;;;;;;1.67;0.97;;;13.30;95.10;;;;;;5074239;28;20440;-60
2023/11/07 10:31:41;;;;;;;3.97;1.23;;;13.30;95.20;;;;;;5074173;28;20426;-60
2023/11/07 10:34:15;;;;;;;1.70;1.07;;;13.30;95.10;;;;;;5074015;28;20552;-60
2023/11/07 10:36:44;;;;;;;2.93;1.30;;;13.20;95.10;;;;;;5073971;28;20447;-60
2023/11/07 10:39:16;;;;;;;2.10;1.07;;;13.30;95.20;;;;;;5073680;28;20930;-60
2023/11/07 10:41:44;;;;;;;3.03;1.33;;;13.40;95.50;;;;;;5073595;28;20592;-60
2023/11/07 10:44:22;;;;;;;4.07;1.57;;;13.40;94.40;;;;;;5073782;28;20467;-60
2023/11/07 10:46:49;;;;;;;3.83;1.60;;;13.40;94.40;;;;;;5073922;28;20464;-60
2023/11/07 10:49:18;;;;;;;1.83;0.90;;;13.40;93.90;;;;;;5073862;28;20452;-60
2023/11/07 10:51:45;;;;;;;2.10;1.10;;;13.50;94.40;;;;;;5073827;28;20494;-60
2023/11/07 10:54:13;;;;;;;3.70;1.20;;;13.70;94.00;;;;;;5073680;28;20456;-60
2023/11/07 10:56:44;;;;;;;8.20;1.27;;;14.00;93.50;;;;;;5073572;28;20440;-60
2023/11/07 10:59:16;;;;;;;1.40;1.00;;;14.20;92.10;;;;;;5073612;28;20472;-60
2023/11/07 11:01:46;;;;;;;2.90;1.23;;;14.20;91.50;;;;;;5073647;28;20467;-60
2023/11/07 11:04:14;;;;;;;3.53;1.40;;;14.40;91.60;;;;;;5073523;28;20522;-60
2023/11/07 11:06:46;;;;;;;6.73;1.40;;;14.50;90.30;;;;;;5073556;28;20449;-60
2023/11/07 11:09:17;;;;;;;6.20;1.33;;;14.70;89.60;;;;;;5073827;28;20422;-60
2023/11/07 11:11:52;;;;;;;4.00;1.33;;;15.10;89.30;;;;;;5073233;28;20455;-60
2023/11/07 11:14:20;;;;;;;6.53;1.50;;;15.40;87.80;;;;;;5073512;28;20444;-60
2023/11/07 11:16:50;;;;;;;3.87;1.60;;;15.60;85.40;;;;;;5073375;28;20447;-60
2023/11/07 11:19:28;;;;;;;1.90;1.00;;;15.40;83.90;;;;;;5073404;28;20425;-60
2023/11/07 11:22:03;;;;;;;1.40;1.07;;;15.30;85.90;;;;;;5073305;28;20472;-60
2023/11/07 11:24:45;;;;;;;4.67;1.40;;;15.30;87.30;;;;;;5073408;28;20439;-60
2023/11/07 11:27:20;;;;;;;3.90;1.13;;;15.30;85.20;;;;;;5072793;28;21006;-60
2023/11/07 11:29:47;;;;;;;6.10;1.20;;;15.20;85.90;;;;;;5073364;28;20425;-60
2023/11/07 11:32:27;;;;;;;5.33;1.27;;;14.90;85.70;;;;;;5073219;28;20457;-60
2023/11/07 11:35:16;;;;;;;2.00;0.90;;;14.50;85.40;;;;;;5073311;28;20513;-60
2023/11/07 11:38:09;;;;;;;8.33;1.10;;;14.20;86.80;;;;;;5072810;28;20954;-60
2023/11/07 11:40:54;;;;;;;6.43;1.27;;;13.90;87.30;;;;;;5073219;28;20451;-61
2023/11/07 11:43:22;;;;;;;5.40;1.77;;;13.80;87.70;;;;;;5073376;28;20571;-60
2023/11/07 11:45:49;;;;;;;5.13;1.43;;;13.70;88.60;;;;;;5073228;28;20444;-60
2023/11/07 11:48:18;;;;;;;5.63;2.03;;;13.70;89.30;;;;;;5072962;28;20848;-60
2023/11/07 11:50:45;;;;;;;2.87;1.50;;;13.60;88.90;;;;;;5073209;28;20441;-60
2023/11/07 11:53:32;;;;;;;2.73;1.50;;;13.60;90.00;;;;;;5073403;28;20465;-60
2023/11/07 11:56:11;;;;;;;1.50;1.20;;;13.50;90.40;;;;;;5072990;28;20465;-60
2023/11/07 11:59:00;;;;;;;4.00;1.20;;;13.60;90.80;;;;;;5073080;28;20498;-60
2023/11/07 12:01:28;;;;;;;4.07;1.20;;;13.70;90.40;;;;;;5073209;28;20429;-60
2023/11/07 12:03:58;;;;;;;6.27;1.20;;;13.70;91.00;;;;;;5073143;28;20485;-58
2023/11/07 12:06:25;;;;;;;2.63;1.40;;;13.50;91.60;;;;;;5073180;28;20436;-58
2023/11/07 12:08:55;;;;;;;3.43;1.23;;;13.30;93.60;;;;;;5073052;28;20441;-58
2023/11/07 12:11:21;;;;;;;2.87;1.30;;;13.20;94.60;;;;;;5072846;28;20480;-58
2023/11/07 12:13:48;;;;;;;4.87;1.40;;;13.00;95.00;;;;;;5073087;28;20456;-59
2023/11/07 12:16:19;;;;;;;3.40;1.07;;;13.00;95.10;;;;;;5073019;28;20455;-60
2023/11/07 12:18:49;;;;;;;3.07;1.40;;;13.10;95.40;;;;;;5072931;28;20453;-59
2023/11/07 12:21:27;;;;;;;4.87;1.20;;;13.20;95.90;;;;;;5073740;28;20436;-59
2023/11/07 12:23:57;;;;;;;7.20;1.50;;;13.50;95.80;;;;;;5072916;28;20488;-59
2023/11/07 12:26:39;;;;;;;2.73;1.73;;;13.70;95.00;;;;;;5072404;28;20963;-60
2023/11/07 12:29:08;;;;;;;3.40;1.00;;;13.80;94.80;;;;;;5073031;28;20425;-59
2023/11/07 12:31:37;;;;;;;3.63;1.37;;;13.90;94.50;;;;;;5072742;28;20452;-60
2023/11/07 12:34:04;;;;;;;3.57;1.07;;;13.90;94.20;;;;;;5072674;28;20518;-59
2023/11/07 12:36:31;;;;;;;3.07;1.30;;;13.70;94.20;;;;;;5072476;28;20437;-58
2023/11/07 12:39:00;;;;;;;3.47;1.30;;;13.50;94.30;;;;;;5073484;28;20437;-58
2023/11/07 12:41:28;;;;;;;2.77;1.23;;;13.30;94.50;;;;;;5075845;28;20960;-58
2023/11/07 12:43:55;;;;;;;2.53;1.20;;;13.10;95.40;;;;;;5075958;28;20613;-58
2023/11/07 12:46:23;;;;;;;4.10;1.17;;;13.00;96.70;;;;;;5076120;28;20448;-58
2023/11/07 12:48:53;;;;;;;6.30;1.27;;;12.90;96.90;;;;;;5076086;28;20453;-59
2023/11/07 12:51:24;;;;;;;2.07;1.20;;;12.90;97.60;;;;;;5076072;28;20429;-59